sensor_id;sensor_type;location;lat;lon;timestamp;temperature;humidity
18934;DHT22;9599;53.706;10.384;2022-09-20T00:01:09;9.40;99.90
18934;DHT22;9599;53.706;10.384;2022-09-20T00:03:39;9.40;99.90
18934;DHT22;9599;53.706;10.384;2022-09-20T00:06:10;9.40;99.90
18934;DHT22;9599;53.706;10.384;2022-09-20T00:08:40;9.40;99.90
18934;DHT22;9599;53.706;10.384;2022-09-20T00:11:10;9.30;99.90
18934;DHT22;9599;53.706;10.384;2022-09-20T00:13:38;9.30;99.90
18934;DHT22;9599;53.706;10.384;2022-09-20T00:16:08;9.30;99.90
18934;DHT22;9599;53.706;10.384;2022-09-20T00:18:37;9.30;99.90
18934;DHT22;9599;53.706;10.384;2022-09-20T00:21:05;9.20;99.90
18934;DHT22;9599;53.706;10.384;2022-09-20T00:23:33;9.20;99.90
18934;DHT22;9599;53.706;10.384;2022-09-20T00:26:03;9.20;99.90
18934;DHT22;9599;53.706;10.384;2022-09-20T00:28:32;9.10;99.90
18934;DHT22;9599;53.706;10.384;2022-09-20T00:31:00;9.10;99.90
18934;DHT22;9599;53.706;10.384;2022-09-20T00:33:27;9.00;99.90
18934;DHT22;9599;53.706;10.384;2022-09-20T00:36:15;9.00;99.90
18934;DHT22;9599;53.706;10.384;2022-09-20T00:38:42;9.00;99.90
18934;DHT22;9599;53.706;10.384;2022-09-20T00:41:12;9.00;99.90
18934;DHT22;9599;53.706;10.384;2022-09-20T00:43:42;9.00;99.90
18934;DHT22;9599;53.706;10.384;2022-09-20T00:46:19;8.90;99.90
18934;DHT22;9599;53.706;10.384;2022-09-20T00:48:49;8.90;99.90
18934;DHT22;9599;53.706;10.384;2022-09-20T00:51:23;8.90;99.90
18934;DHT22;9599;53.706;10.384;2022-09-20T00:53:53;8.80;99.90
18934;DHT22;9599;53.706;10.384;2022-09-20T00:56:26;8.80;99.90
18934;DHT22;9599;53.706;10.384;2022-09-20T00:58:59;8.80;99.90
18934;DHT22;9599;53.706;10.384;2022-09-20T01:01:30;8.80;99.90
18934;DHT22;9599;53.706;10.384;2022-09-20T01:03:59;8.80;99.90
18934;DHT22;9599;53.706;10.384;2022-09-20T01:06:28;8.80;99.90
18934;DHT22;9599;53.706;10.384;2022-09-20T01:08:58;8.80;99.90
18934;DHT22;9599;53.706;10.384;2022-09-20T01:11:30;8.80;99.90
18934;DHT22;9599;53.706;10.384;2022-09-20T01:13:57;8.80;99.90
18934;DHT22;9599;53.706;10.384;2022-09-20T01:16:26;8.80;99.90
18934;DHT22;9599;53.706;10.384;2022-09-20T01:18:56;8.80;99.90
18934;DHT22;9599;53.706;10.384;2022-09-20T01:21:25;8.70;99.90
18934;DHT22;9599;53.706;10.384;2022-09-20T01:23:59;8.70;99.90
18934;DHT22;9599;53.706;10.384;2022-09-20T01:26:40;8.70;99.90
18934;DHT22;9599;53.706;10.384;2022-09-20T01:29:22;8.70;99.90
18934;DHT22;9599;53.706;10.384;2022-09-20T01:31:55;8.70;99.90
18934;DHT22;9599;53.706;10.384;2022-09-20T01:34:30;8.70;99.90
18934;DHT22;9599;53.706;10.384;2022-09-20T01:37:05;8.60;99.90
18934;DHT22;9599;53.706;10.384;2022-09-20T01:39:40;8.60;99.90
18934;DHT22;9599;53.706;10.384;2022-09-20T01:42:10;8.60;99.90
18934;DHT22;9599;53.706;10.384;2022-09-20T01:44:47;8.50;99.90
18934;DHT22;9599;53.706;10.384;2022-09-20T01:47:25;8.50;99.90
18934;DHT22;9599;53.706;10.384;2022-09-20T01:50:06;8.50;99.90
18934;DHT22;9599;53.706;10.384;2022-09-20T01:52:58;8.40;99.90
18934;DHT22;9599;53.706;10.384;2022-09-20T01:59:16;8.40;99.90
18934;DHT22;9599;53.706;10.384;2022-09-20T02:02:14;8.40;99.90
18934;DHT22;9599;53.706;10.384;2022-09-20T02:05:11;8.30;99.90
18934;DHT22;9599;53.706;10.384;2022-09-20T02:07:54;8.30;99.90
18934;DHT22;9599;53.706;10.384;2022-09-20T02:10:37;8.40;99.90
18934;DHT22;9599;53.706;10.384;2022-09-20T02:13:10;8.40;99.90
18934;DHT22;9599;53.706;10.384;2022-09-20T02:16:10;8.30;99.90
18934;DHT22;9599;53.706;10.384;2022-09-20T02:18:54;8.40;99.90
18934;DHT22;9599;53.706;10.384;2022-09-20T02:21:27;8.30;99.90
18934;DHT22;9599;53.706;10.384;2022-09-20T02:24:04;8.30;99.90
18934;DHT22;9599;53.706;10.384;2022-09-20T02:26:41;8.30;99.90
18934;DHT22;9599;53.706;10.384;2022-09-20T02:29:21;8.20;99.90
18934;DHT22;9599;53.706;10.384;2022-09-20T02:32:05;8.20;99.90
18934;DHT22;9599;53.706;10.384;2022-09-20T02:34:49;8.20;99.90
18934;DHT22;9599;53.706;10.384;2022-09-20T02:40:23;8.20;99.90
18934;DHT22;9599;53.706;10.384;2022-09-20T02:43:00;8.20;99.90
18934;DHT22;9599;53.706;10.384;2022-09-20T02:45:36;8.10;99.90
18934;DHT22;9599;53.706;10.384;2022-09-20T02:48:08;8.10;99.90
18934;DHT22;9599;53.706;10.384;2022-09-20T02:50:44;8.10;99.90
18934;DHT22;9599;53.706;10.384;2022-09-20T02:53:29;8.10;99.90
18934;DHT22;9599;53.706;10.384;2022-09-20T02:56:06;8.10;99.90
18934;DHT22;9599;53.706;10.384;2022-09-20T02:58:49;8.00;99.90
18934;DHT22;9599;53.706;10.384;2022-09-20T03:01:29;8.00;99.90
18934;DHT22;9599;53.706;10.384;2022-09-20T03:04:09;8.00;99.90
18934;DHT22;9599;53.706;10.384;2022-09-20T03:06:44;8.00;99.90
18934;DHT22;9599;53.706;10.384;2022-09-20T03:09:18;8.00;99.90
18934;DHT22;9599;53.706;10.384;2022-09-20T03:12:01;7.90;99.90
18934;DHT22;9599;53.706;10.384;2022-09-20T03:14:35;7.90;99.90
18934;DHT22;9599;53.706;10.384;2022-09-20T03:17:14;7.90;99.90
18934;DHT22;9599;53.706;10.384;2022-09-20T03:19:59;7.90;99.90
18934;DHT22;9599;53.706;10.384;2022-09-20T03:22:39;7.90;99.90
18934;DHT22;9599;53.706;10.384;2022-09-20T03:25:29;7.80;99.90
18934;DHT22;9599;53.706;10.384;2022-09-20T03:28:08;7.80;99.90
18934;DHT22;9599;53.706;10.384;2022-09-20T03:30:49;7.80;99.90
18934;DHT22;9599;53.706;10.384;2022-09-20T03:33:25;7.70;99.90
18934;DHT22;9599;53.706;10.384;2022-09-20T03:36:08;7.70;99.90
18934;DHT22;9599;53.706;10.384;2022-09-20T03:39:17;7.70;99.90
18934;DHT22;9599;53.706;10.384;2022-09-20T03:42:01;7.60;99.90
18934;DHT22;9599;53.706;10.384;2022-09-20T03:44:56;7.60;99.90
18934;DHT22;9599;53.706;10.384;2022-09-20T03:47:46;7.60;99.90
18934;DHT22;9599;53.706;10.384;2022-09-20T03:50:30;7.50;99.90
18934;DHT22;9599;53.706;10.384;2022-09-20T03:53:32;7.50;99.90
18934;DHT22;9599;53.706;10.384;2022-09-20T03:56:21;7.50;99.90
18934;DHT22;9599;53.706;10.384;2022-09-20T03:59:10;7.40;99.90
18934;DHT22;9599;53.706;10.384;2022-09-20T04:02:06;7.40;99.90
18934;DHT22;9599;53.706;10.384;2022-09-20T04:04:41;7.40;99.90
18934;DHT22;9599;53.706;10.384;2022-09-20T04:07:17;7.30;99.90
18934;DHT22;9599;53.706;10.384;2022-09-20T04:10:14;7.40;99.90
18934;DHT22;9599;53.706;10.384;2022-09-20T04:12:54;7.30;99.90
18934;DHT22;9599;53.706;10.384;2022-09-20T04:15:29;7.30;99.90
18934;DHT22;9599;53.706;10.384;2022-09-20T04:18:02;7.30;99.90
18934;DHT22;9599;53.706;10.384;2022-09-20T04:20:36;7.20;99.90
18934;DHT22;9599;53.706;10.384;2022-09-20T04:23:14;7.20;99.90
18934;DHT22;9599;53.706;10.384;2022-09-20T04:25:46;7.20;99.90
18934;DHT22;9599;53.706;10.384;2022-09-20T04:28:21;7.20;99.90
18934;DHT22;9599;53.706;10.384;2022-09-20T04:30:52;7.20;99.90
18934;DHT22;9599;53.706;10.384;2022-09-20T04:33:25;7.20;99.90
18934;DHT22;9599;53.706;10.384;2022-09-20T04:36:02;7.10;99.90
18934;DHT22;9599;53.706;10.384;2022-09-20T04:38:53;7.10;99.90
18934;DHT22;9599;53.706;10.384;2022-09-20T04:41:47;7.10;99.90
18934;DHT22;9599;53.706;10.384;2022-09-20T04:45:02;7.10;99.90
18934;DHT22;9599;53.706;10.384;2022-09-20T04:47:58;7.10;99.90
18934;DHT22;9599;53.706;10.384;2022-09-20T04:50:44;7.10;99.90
18934;DHT22;9599;53.706;10.384;2022-09-20T04:53:23;7.10;99.90
18934;DHT22;9599;53.706;10.384;2022-09-20T04:55:59;7.10;99.90
18934;DHT22;9599;53.706;10.384;2022-09-20T04:58:35;7.10;99.90
18934;DHT22;9599;53.706;10.384;2022-09-20T05:01:53;7.10;99.90
18934;DHT22;9599;53.706;10.384;2022-09-20T05:05:00;7.00;99.90
18934;DHT22;9599;53.706;10.384;2022-09-20T05:07:54;7.00;99.90
18934;DHT22;9599;53.706;10.384;2022-09-20T05:10:58;7.00;99.90
18934;DHT22;9599;53.706;10.384;2022-09-20T05:13:38;7.00;99.90
18934;DHT22;9599;53.706;10.384;2022-09-20T05:16:18;7.00;99.90
18934;DHT22;9599;53.706;10.384;2022-09-20T05:19:08;7.00;99.90
18934;DHT22;9599;53.706;10.384;2022-09-20T05:24:45;7.00;99.90
18934;DHT22;9599;53.706;10.384;2022-09-20T05:27:32;7.00;99.90
18934;DHT22;9599;53.706;10.384;2022-09-20T05:30:04;6.90;99.90
18934;DHT22;9599;53.706;10.384;2022-09-20T05:32:44;6.90;99.90
18934;DHT22;9599;53.706;10.384;2022-09-20T05:35:18;6.90;99.90
18934;DHT22;9599;53.706;10.384;2022-09-20T05:37:54;6.90;99.90
18934;DHT22;9599;53.706;10.384;2022-09-20T05:40:32;6.90;99.90
18934;DHT22;9599;53.706;10.384;2022-09-20T05:43:08;6.90;99.90
18934;DHT22;9599;53.706;10.384;2022-09-20T05:45:47;6.90;99.90
18934;DHT22;9599;53.706;10.384;2022-09-20T05:48:23;6.90;99.90
18934;DHT22;9599;53.706;10.384;2022-09-20T05:50:57;7.00;99.90
18934;DHT22;9599;53.706;10.384;2022-09-20T05:53:49;7.00;99.90
18934;DHT22;9599;53.706;10.384;2022-09-20T05:56:32;7.00;99.90
18934;DHT22;9599;53.706;10.384;2022-09-20T05:59:14;7.00;99.90
18934;DHT22;9599;53.706;10.384;2022-09-20T06:01:57;7.10;99.90
18934;DHT22;9599;53.706;10.384;2022-09-20T06:04:37;7.10;99.90
18934;DHT22;9599;53.706;10.384;2022-09-20T06:07:18;7.10;99.90
18934;DHT22;9599;53.706;10.384;2022-09-20T06:10:15;7.20;99.90
18934;DHT22;9599;53.706;10.384;2022-09-20T06:12:54;7.20;99.90
18934;DHT22;9599;53.706;10.384;2022-09-20T06:15:31;7.30;99.90
18934;DHT22;9599;53.706;10.384;2022-09-20T06:18:13;7.40;99.90
18934;DHT22;9599;53.706;10.384;2022-09-20T06:20:53;7.40;99.90
18934;DHT22;9599;53.706;10.384;2022-09-20T06:23:23;7.50;99.90
18934;DHT22;9599;53.706;10.384;2022-09-20T06:25:54;7.50;99.90
18934;DHT22;9599;53.706;10.384;2022-09-20T06:28:26;7.50;99.90
18934;DHT22;9599;53.706;10.384;2022-09-20T06:30:55;7.70;99.90
18934;DHT22;9599;53.706;10.384;2022-09-20T06:33:24;7.70;99.90
18934;DHT22;9599;53.706;10.384;2022-09-20T06:35:58;7.70;99.90
18934;DHT22;9599;53.706;10.384;2022-09-20T06:38:57;7.90;99.90
18934;DHT22;9599;53.706;10.384;2022-09-20T06:41:46;8.00;99.90
18934;DHT22;9599;53.706;10.384;2022-09-20T06:44:16;8.00;99.90
18934;DHT22;9599;53.706;10.384;2022-09-20T06:46:44;8.00;99.90
18934;DHT22;9599;53.706;10.384;2022-09-20T06:49:12;8.20;99.90
18934;DHT22;9599;53.706;10.384;2022-09-20T06:51:41;8.30;99.90
18934;DHT22;9599;53.706;10.384;2022-09-20T06:54:16;8.40;99.90
18934;DHT22;9599;53.706;10.384;2022-09-20T06:56:44;8.50;99.90
18934;DHT22;9599;53.706;10.384;2022-09-20T06:59:13;8.60;99.90
18934;DHT22;9599;53.706;10.384;2022-09-20T07:01:42;8.70;99.90
18934;DHT22;9599;53.706;10.384;2022-09-20T07:04:10;8.80;99.90
18934;DHT22;9599;53.706;10.384;2022-09-20T07:06:37;8.90;99.90
18934;DHT22;9599;53.706;10.384;2022-09-20T07:09:10;9.00;99.90
18934;DHT22;9599;53.706;10.384;2022-09-20T07:11:38;9.00;99.90
18934;DHT22;9599;53.706;10.384;2022-09-20T07:14:05;9.10;99.90
18934;DHT22;9599;53.706;10.384;2022-09-20T07:16:33;9.30;99.90
18934;DHT22;9599;53.706;10.384;2022-09-20T07:19:02;9.40;99.90
18934;DHT22;9599;53.706;10.384;2022-09-20T07:21:30;9.60;99.90
18934;DHT22;9599;53.706;10.384;2022-09-20T07:23:58;9.70;99.90
18934;DHT22;9599;53.706;10.384;2022-09-20T07:26:30;9.90;99.90
18934;DHT22;9599;53.706;10.384;2022-09-20T07:28:58;10.00;99.90
18934;DHT22;9599;53.706;10.384;2022-09-20T07:31:28;10.20;99.90
18934;DHT22;9599;53.706;10.384;2022-09-20T07:33:55;10.40;99.90
18934;DHT22;9599;53.706;10.384;2022-09-20T07:36:24;10.60;99.90
18934;DHT22;9599;53.706;10.384;2022-09-20T07:38:52;10.80;99.90
18934;DHT22;9599;53.706;10.384;2022-09-20T07:41:20;11.00;99.90
18934;DHT22;9599;53.706;10.384;2022-09-20T07:43:50;11.20;99.90
18934;DHT22;9599;53.706;10.384;2022-09-20T07:46:18;11.40;99.90
18934;DHT22;9599;53.706;10.384;2022-09-20T07:48:49;11.60;99.90
18934;DHT22;9599;53.706;10.384;2022-09-20T07:51:17;11.70;99.90
18934;DHT22;9599;53.706;10.384;2022-09-20T07:53:45;11.90;99.90
18934;DHT22;9599;53.706;10.384;2022-09-20T07:56:14;12.20;99.90
18934;DHT22;9599;53.706;10.384;2022-09-20T07:58:43;12.30;99.90
18934;DHT22;9599;53.706;10.384;2022-09-20T08:01:19;12.50;99.90
18934;DHT22;9599;53.706;10.384;2022-09-20T08:03:48;12.70;99.90
18934;DHT22;9599;53.706;10.384;2022-09-20T08:06:17;12.80;99.90
18934;DHT22;9599;53.706;10.384;2022-09-20T08:08:47;12.90;99.90
18934;DHT22;9599;53.706;10.384;2022-09-20T08:11:16;12.90;99.90
18934;DHT22;9599;53.706;10.384;2022-09-20T08:13:46;13.00;99.90
18934;DHT22;9599;53.706;10.384;2022-09-20T08:16:38;13.20;99.90
18934;DHT22;9599;53.706;10.384;2022-09-20T08:19:07;13.30;99.90
18934;DHT22;9599;53.706;10.384;2022-09-20T08:21:38;13.30;99.90
18934;DHT22;9599;53.706;10.384;2022-09-20T08:24:06;13.40;99.90
18934;DHT22;9599;53.706;10.384;2022-09-20T08:26:34;13.40;99.90
18934;DHT22;9599;53.706;10.384;2022-09-20T08:29:03;13.40;99.90
18934;DHT22;9599;53.706;10.384;2022-09-20T08:31:33;13.60;99.90
18934;DHT22;9599;53.706;10.384;2022-09-20T08:34:05;13.70;99.90
18934;DHT22;9599;53.706;10.384;2022-09-20T08:36:37;13.70;99.90
18934;DHT22;9599;53.706;10.384;2022-09-20T08:39:07;13.70;99.90
18934;DHT22;9599;53.706;10.384;2022-09-20T08:41:57;13.60;99.90
18934;DHT22;9599;53.706;10.384;2022-09-20T08:44:29;13.70;99.90
18934;DHT22;9599;53.706;10.384;2022-09-20T08:47:07;13.80;99.90
18934;DHT22;9599;53.706;10.384;2022-09-20T08:49:38;13.90;99.90
18934;DHT22;9599;53.706;10.384;2022-09-20T08:52:16;14.10;99.90
18934;DHT22;9599;53.706;10.384;2022-09-20T08:54:44;14.20;99.90
18934;DHT22;9599;53.706;10.384;2022-09-20T08:57:16;14.30;99.90
18934;DHT22;9599;53.706;10.384;2022-09-20T08:59:44;14.50;99.90
18934;DHT22;9599;53.706;10.384;2022-09-20T09:02:15;14.50;99.90
18934;DHT22;9599;53.706;10.384;2022-09-20T09:04:45;14.70;99.90
18934;DHT22;9599;53.706;10.384;2022-09-20T09:07:16;14.90;99.90
18934;DHT22;9599;53.706;10.384;2022-09-20T09:09:46;15.10;99.90
18934;DHT22;9599;53.706;10.384;2022-09-20T09:12:18;15.00;99.90
18934;DHT22;9599;53.706;10.384;2022-09-20T09:14:48;14.80;99.90
18934;DHT22;9599;53.706;10.384;2022-09-20T09:17:22;14.70;99.90
18934;DHT22;9599;53.706;10.384;2022-09-20T09:19:55;15.00;99.90
18934;DHT22;9599;53.706;10.384;2022-09-20T09:22:27;15.00;99.90
18934;DHT22;9599;53.706;10.384;2022-09-20T09:25:09;14.90;99.90
18934;DHT22;9599;53.706;10.384;2022-09-20T09:27:51;15.00;99.90
18934;DHT22;9599;53.706;10.384;2022-09-20T09:30:23;15.30;99.90
18934;DHT22;9599;53.706;10.384;2022-09-20T09:32:52;15.50;99.90
18934;DHT22;9599;53.706;10.384;2022-09-20T09:35:25;15.50;99.90
18934;DHT22;9599;53.706;10.384;2022-09-20T09:37:56;15.40;99.90
18934;DHT22;9599;53.706;10.384;2022-09-20T09:40:25;15.20;99.90
18934;DHT22;9599;53.706;10.384;2022-09-20T09:42:54;15.20;99.90
18934;DHT22;9599;53.706;10.384;2022-09-20T09:45:26;15.40;99.90
18934;DHT22;9599;53.706;10.384;2022-09-20T09:47:56;15.50;99.90
18934;DHT22;9599;53.706;10.384;2022-09-20T09:50:28;15.50;99.90
18934;DHT22;9599;53.706;10.384;2022-09-20T09:52:58;15.50;99.90
18934;DHT22;9599;53.706;10.384;2022-09-20T09:55:36;15.40;99.90
18934;DHT22;9599;53.706;10.384;2022-09-20T09:58:13;15.30;99.90
18934;DHT22;9599;53.706;10.384;2022-09-20T10:00:44;15.20;99.90
18934;DHT22;9599;53.706;10.384;2022-09-20T10:03:27;15.10;99.90
18934;DHT22;9599;53.706;10.384;2022-09-20T10:06:10;15.30;99.90
18934;DHT22;9599;53.706;10.384;2022-09-20T10:08:51;15.40;99.90
18934;DHT22;9599;53.706;10.384;2022-09-20T10:11:29;15.60;99.90
18934;DHT22;9599;53.706;10.384;2022-09-20T10:14:06;15.90;99.90
18934;DHT22;9599;53.706;10.384;2022-09-20T10:16:55;16.20;99.90
18934;DHT22;9599;53.706;10.384;2022-09-20T10:19:34;16.30;99.90
18934;DHT22;9599;53.706;10.384;2022-09-20T10:22:10;16.40;99.90
18934;DHT22;9599;53.706;10.384;2022-09-20T10:24:48;16.40;99.90
18934;DHT22;9599;53.706;10.384;2022-09-20T10:27:29;16.40;99.90
18934;DHT22;9599;53.706;10.384;2022-09-20T10:30:07;16.40;99.90
18934;DHT22;9599;53.706;10.384;2022-09-20T10:32:50;16.70;99.90
18934;DHT22;9599;53.706;10.384;2022-09-20T10:35:24;16.80;99.90
18934;DHT22;9599;53.706;10.384;2022-09-20T10:38:11;16.60;99.90
18934;DHT22;9599;53.706;10.384;2022-09-20T10:40:49;16.40;99.90
18934;DHT22;9599;53.706;10.384;2022-09-20T10:43:49;16.40;99.90
18934;DHT22;9599;53.706;10.384;2022-09-20T10:46:27;16.40;99.90
18934;DHT22;9599;53.706;10.384;2022-09-20T10:49:03;16.30;99.90
18934;DHT22;9599;53.706;10.384;2022-09-20T10:51:46;16.60;99.90
18934;DHT22;9599;53.706;10.384;2022-09-20T10:54:29;16.60;99.90
18934;DHT22;9599;53.706;10.384;2022-09-20T10:57:14;16.80;99.90
18934;DHT22;9599;53.706;10.384;2022-09-20T10:59:46;16.70;99.90
18934;DHT22;9599;53.706;10.384;2022-09-20T11:02:33;16.30;99.90
18934;DHT22;9599;53.706;10.384;2022-09-20T11:05:32;16.20;99.90
18934;DHT22;9599;53.706;10.384;2022-09-20T11:08:10;16.30;99.90
18934;DHT22;9599;53.706;10.384;2022-09-20T11:10:43;16.40;99.90
18934;DHT22;9599;53.706;10.384;2022-09-20T11:13:21;16.60;99.90
18934;DHT22;9599;53.706;10.384;2022-09-20T11:15:54;16.70;99.90
18934;DHT22;9599;53.706;10.384;2022-09-20T11:18:29;16.70;99.90
18934;DHT22;9599;53.706;10.384;2022-09-20T11:21:05;17.00;99.90
18934;DHT22;9599;53.706;10.384;2022-09-20T11:23:42;16.80;99.90
18934;DHT22;9599;53.706;10.384;2022-09-20T11:26:17;16.60;99.90
18934;DHT22;9599;53.706;10.384;2022-09-20T11:28:49;16.50;99.90
18934;DHT22;9599;53.706;10.384;2022-09-20T11:31:22;16.40;99.90
18934;DHT22;9599;53.706;10.384;2022-09-20T11:33:54;16.40;99.90
18934;DHT22;9599;53.706;10.384;2022-09-20T11:36:28;16.50;99.90
18934;DHT22;9599;53.706;10.384;2022-09-20T11:38:59;16.40;99.90
18934;DHT22;9599;53.706;10.384;2022-09-20T11:41:31;16.50;99.90
18934;DHT22;9599;53.706;10.384;2022-09-20T11:44:03;16.50;99.90
18934;DHT22;9599;53.706;10.384;2022-09-20T11:46:34;16.30;99.90
18934;DHT22;9599;53.706;10.384;2022-09-20T11:49:09;16.30;99.90
18934;DHT22;9599;53.706;10.384;2022-09-20T11:51:54;16.20;99.90
18934;DHT22;9599;53.706;10.384;2022-09-20T11:55:02;16.30;99.90
18934;DHT22;9599;53.706;10.384;2022-09-20T11:57:33;16.50;99.90
18934;DHT22;9599;53.706;10.384;2022-09-20T12:00:04;16.50;99.90
18934;DHT22;9599;53.706;10.384;2022-09-20T12:02:45;16.40;99.90
18934;DHT22;9599;53.706;10.384;2022-09-20T12:05:28;16.50;99.90
18934;DHT22;9599;53.706;10.384;2022-09-20T12:08:00;16.50;99.90
18934;DHT22;9599;53.706;10.384;2022-09-20T12:10:31;16.60;99.90
18934;DHT22;9599;53.706;10.384;2022-09-20T12:13:03;16.60;99.90
18934;DHT22;9599;53.706;10.384;2022-09-20T12:15:34;16.50;99.90
18934;DHT22;9599;53.706;10.384;2022-09-20T12:18:13;16.60;99.90
18934;DHT22;9599;53.706;10.384;2022-09-20T12:21:07;16.50;99.90
18934;DHT22;9599;53.706;10.384;2022-09-20T12:26:49;16.50;99.90
18934;DHT22;9599;53.706;10.384;2022-09-20T12:39:02;16.80;99.90
18934;DHT22;9599;53.706;10.384;2022-09-20T12:41:45;16.90;99.90
18934;DHT22;9599;53.706;10.384;2022-09-20T12:44:29;17.00;99.90
18934;DHT22;9599;53.706;10.384;2022-09-20T12:47:00;17.10;99.90
18934;DHT22;9599;53.706;10.384;2022-09-20T12:52:51;17.00;99.90
18934;DHT22;9599;53.706;10.384;2022-09-20T12:55:29;16.80;99.90
18934;DHT22;9599;53.706;10.384;2022-09-20T12:57:59;16.70;99.90
18934;DHT22;9599;53.706;10.384;2022-09-20T13:00:33;16.60;99.90
18934;DHT22;9599;53.706;10.384;2022-09-20T13:03:21;16.60;99.90
18934;DHT22;9599;53.706;10.384;2022-09-20T13:06:21;16.60;99.90
18934;DHT22;9599;53.706;10.384;2022-09-20T13:09:05;16.60;99.90
18934;DHT22;9599;53.706;10.384;2022-09-20T13:11:39;16.50;99.90
18934;DHT22;9599;53.706;10.384;2022-09-20T13:14:11;16.30;99.90
18934;DHT22;9599;53.706;10.384;2022-09-20T13:16:46;16.10;99.90
18934;DHT22;9599;53.706;10.384;2022-09-20T13:19:18;16.00;99.90
18934;DHT22;9599;53.706;10.384;2022-09-20T13:21:52;16.10;99.90
18934;DHT22;9599;53.706;10.384;2022-09-20T13:24:23;16.20;99.90
18934;DHT22;9599;53.706;10.384;2022-09-20T13:26:53;16.40;99.90
18934;DHT22;9599;53.706;10.384;2022-09-20T13:29:28;16.40;99.90
18934;DHT22;9599;53.706;10.384;2022-09-20T13:32:14;16.50;99.90
18934;DHT22;9599;53.706;10.384;2022-09-20T13:34:42;16.70;99.90
18934;DHT22;9599;53.706;10.384;2022-09-20T13:37:17;16.70;99.90
18934;DHT22;9599;53.706;10.384;2022-09-20T13:39:46;16.70;99.90
18934;DHT22;9599;53.706;10.384;2022-09-20T13:42:19;16.70;99.90
18934;DHT22;9599;53.706;10.384;2022-09-20T13:44:48;16.80;99.90
18934;DHT22;9599;53.706;10.384;2022-09-20T13:47:23;16.70;99.90
18934;DHT22;9599;53.706;10.384;2022-09-20T13:49:52;16.70;99.90
18934;DHT22;9599;53.706;10.384;2022-09-20T13:52:24;16.80;99.90
18934;DHT22;9599;53.706;10.384;2022-09-20T13:54:52;17.00;99.90
18934;DHT22;9599;53.706;10.384;2022-09-20T13:57:24;17.10;99.90
18934;DHT22;9599;53.706;10.384;2022-09-20T13:59:53;17.10;99.90
18934;DHT22;9599;53.706;10.384;2022-09-20T14:02:25;17.10;99.90
18934;DHT22;9599;53.706;10.384;2022-09-20T14:04:55;17.10;99.90
18934;DHT22;9599;53.706;10.384;2022-09-20T14:07:27;17.20;99.90
18934;DHT22;9599;53.706;10.384;2022-09-20T14:09:56;17.30;99.90
18934;DHT22;9599;53.706;10.384;2022-09-20T14:12:24;17.40;99.90
18934;DHT22;9599;53.706;10.384;2022-09-20T14:14:54;17.50;99.90
18934;DHT22;9599;53.706;10.384;2022-09-20T14:17:22;17.60;99.90
18934;DHT22;9599;53.706;10.384;2022-09-20T14:19:52;17.60;99.90
18934;DHT22;9599;53.706;10.384;2022-09-20T14:22:23;17.50;99.90
18934;DHT22;9599;53.706;10.384;2022-09-20T14:25:00;17.50;99.90
18934;DHT22;9599;53.706;10.384;2022-09-20T14:27:29;17.40;99.90
18934;DHT22;9599;53.706;10.384;2022-09-20T14:29:58;17.40;99.90
18934;DHT22;9599;53.706;10.384;2022-09-20T14:32:33;17.50;99.90
18934;DHT22;9599;53.706;10.384;2022-09-20T14:35:04;17.50;99.90
18934;DHT22;9599;53.706;10.384;2022-09-20T14:37:35;17.20;99.90
18934;DHT22;9599;53.706;10.384;2022-09-20T14:40:20;17.10;99.90
18934;DHT22;9599;53.706;10.384;2022-09-20T14:42:52;16.90;99.90
18934;DHT22;9599;53.706;10.384;2022-09-20T14:45:24;16.80;99.90
18934;DHT22;9599;53.706;10.384;2022-09-20T14:47:55;16.50;99.90
18934;DHT22;9599;53.706;10.384;2022-09-20T14:50:27;16.40;99.90
18934;DHT22;9599;53.706;10.384;2022-09-20T14:52:59;16.40;99.90
18934;DHT22;9599;53.706;10.384;2022-09-20T14:55:29;16.60;99.90
18934;DHT22;9599;53.706;10.384;2022-09-20T14:58:06;16.70;99.90
18934;DHT22;9599;53.706;10.384;2022-09-20T15:00:46;16.70;99.90
18934;DHT22;9599;53.706;10.384;2022-09-20T15:03:21;16.70;99.90
18934;DHT22;9599;53.706;10.384;2022-09-20T15:05:50;16.80;99.90
18934;DHT22;9599;53.706;10.384;2022-09-20T15:08:18;16.80;99.90
18934;DHT22;9599;53.706;10.384;2022-09-20T15:10:47;16.80;99.90
18934;DHT22;9599;53.706;10.384;2022-09-20T15:13:15;16.80;99.90
18934;DHT22;9599;53.706;10.384;2022-09-20T15:15:44;16.90;99.90
18934;DHT22;9599;53.706;10.384;2022-09-20T15:18:18;16.90;99.90
18934;DHT22;9599;53.706;10.384;2022-09-20T15:20:48;16.80;99.90
18934;DHT22;9599;53.706;10.384;2022-09-20T15:23:16;16.80;99.90
18934;DHT22;9599;53.706;10.384;2022-09-20T15:25:44;16.70;99.90
18934;DHT22;9599;53.706;10.384;2022-09-20T15:28:14;16.70;99.90
18934;DHT22;9599;53.706;10.384;2022-09-20T15:30:43;16.60;99.90
18934;DHT22;9599;53.706;10.384;2022-09-20T15:33:12;16.60;99.90
18934;DHT22;9599;53.706;10.384;2022-09-20T15:35:41;16.50;99.90
18934;DHT22;9599;53.706;10.384;2022-09-20T15:38:10;16.50;99.90
18934;DHT22;9599;53.706;10.384;2022-09-20T15:40:38;16.50;99.90
18934;DHT22;9599;53.706;10.384;2022-09-20T15:43:08;16.50;99.90
18934;DHT22;9599;53.706;10.384;2022-09-20T15:45:47;16.40;99.90
18934;DHT22;9599;53.706;10.384;2022-09-20T15:48:16;16.40;99.90
18934;DHT22;9599;53.706;10.384;2022-09-20T15:50:58;16.30;99.90
18934;DHT22;9599;53.706;10.384;2022-09-20T15:53:28;16.20;99.90
18934;DHT22;9599;53.706;10.384;2022-09-20T15:55:59;16.10;99.90
18934;DHT22;9599;53.706;10.384;2022-09-20T15:58:28;16.10;99.90
18934;DHT22;9599;53.706;10.384;2022-09-20T16:01:04;15.90;99.90
18934;DHT22;9599;53.706;10.384;2022-09-20T16:03:33;15.80;99.90
18934;DHT22;9599;53.706;10.384;2022-09-20T16:06:03;15.80;99.90
18934;DHT22;9599;53.706;10.384;2022-09-20T16:08:31;15.80;99.90
18934;DHT22;9599;53.706;10.384;2022-09-20T16:10:59;15.80;99.90
18934;DHT22;9599;53.706;10.384;2022-09-20T16:13:27;15.80;99.90
18934;DHT22;9599;53.706;10.384;2022-09-20T16:15:56;15.90;99.90
18934;DHT22;9599;53.706;10.384;2022-09-20T16:18:26;15.90;99.90
18934;DHT22;9599;53.706;10.384;2022-09-20T16:21:13;15.90;99.90
18934;DHT22;9599;53.706;10.384;2022-09-20T16:23:46;15.80;99.90
18934;DHT22;9599;53.706;10.384;2022-09-20T16:26:15;15.80;99.90
18934;DHT22;9599;53.706;10.384;2022-09-20T16:28:43;15.80;99.90
18934;DHT22;9599;53.706;10.384;2022-09-20T16:31:34;15.80;99.90
18934;DHT22;9599;53.706;10.384;2022-09-20T16:34:11;15.80;99.90
18934;DHT22;9599;53.706;10.384;2022-09-20T16:36:39;15.80;99.90
18934;DHT22;9599;53.706;10.384;2022-09-20T16:39:10;15.80;99.90
18934;DHT22;9599;53.706;10.384;2022-09-20T16:41:38;15.80;99.90
18934;DHT22;9599;53.706;10.384;2022-09-20T16:44:06;15.80;99.90
18934;DHT22;9599;53.706;10.384;2022-09-20T16:46:35;15.80;99.90
18934;DHT22;9599;53.706;10.384;2022-09-20T16:49:04;15.70;99.90
18934;DHT22;9599;53.706;10.384;2022-09-20T16:51:35;15.70;99.90
18934;DHT22;9599;53.706;10.384;2022-09-20T16:54:05;15.60;99.90
18934;DHT22;9599;53.706;10.384;2022-09-20T16:56:34;15.50;99.90